createdAt,value
2023-04-21T00:01:59.325Z,12.45
2023-04-21T00:04:26.781Z,11.10
2023-04-21T00:06:54.674Z,11.00
2023-04-21T00:09:22.186Z,13.07
2023-04-21T00:11:49.337Z,15.90
2023-04-21T00:14:16.336Z,15.23
2023-04-21T00:16:43.388Z,13.43
2023-04-21T00:19:10.600Z,12.65
2023-04-21T00:21:37.725Z,17.80
2023-04-21T00:24:05.126Z,14.63
2023-04-21T00:26:32.169Z,14.60
2023-04-21T00:28:59.519Z,14.82
2023-04-21T00:31:26.716Z,12.90
2023-04-21T00:33:54.110Z,17.38
2023-04-21T00:36:24.817Z,13.73
2023-04-21T00:38:53.456Z,14.30
2023-04-21T00:41:20.495Z,13.90
2023-04-21T00:44:10.497Z,16.08
2023-04-21T00:46:38.760Z,13.05
2023-04-21T00:49:07.809Z,12.68
2023-04-21T00:51:36.427Z,14.18
2023-04-21T00:54:06.042Z,13.88
2023-04-21T00:56:35.559Z,19.27
2023-04-21T00:59:04.060Z,14.35
2023-04-21T01:01:32.119Z,13.82
2023-04-21T01:04:00.910Z,17.05
2023-04-21T01:06:36.994Z,16.65
2023-04-21T01:09:07.530Z,18.00
2023-04-21T01:11:36.745Z,12.98
2023-04-21T01:14:03.777Z,16.52
2023-04-21T01:16:33.683Z,13.32
2023-04-21T01:19:01.574Z,16.98
2023-04-21T01:21:32.122Z,19.02
2023-04-21T01:24:01.623Z,17.20
2023-04-21T01:26:28.895Z,15.98
2023-04-21T01:28:57.570Z,16.10
2023-04-21T01:31:24.613Z,19.98
2023-04-21T01:33:51.797Z,14.85
2023-04-21T01:36:18.867Z,18.27
2023-04-21T01:38:46.007Z,16.77
2023-04-21T01:41:13.037Z,15.50
2023-04-21T01:43:40.101Z,17.60
2023-04-21T01:46:07.432Z,16.88
2023-04-21T01:48:36.634Z,15.88
2023-04-21T01:51:03.770Z,18.05
2023-04-21T01:53:30.749Z,15.15
2023-04-21T01:55:57.796Z,16.05
2023-04-21T01:58:24.914Z,17.38
2023-04-21T02:00:52.034Z,15.52
2023-04-21T02:03:19.287Z,17.77
2023-04-21T02:05:46.618Z,14.55
2023-04-21T02:08:13.661Z,20.73
2023-04-21T02:10:41.518Z,16.58
2023-04-21T02:13:12.109Z,16.13
2023-04-21T02:15:39.329Z,18.75
2023-04-21T02:18:08.394Z,14.65
2023-04-21T02:20:35.648Z,22.85
2023-04-21T02:23:02.755Z,17.60
2023-04-21T02:25:30.852Z,14.60
2023-04-21T02:27:57.896Z,16.45
2023-04-21T02:30:27.727Z,16.63
2023-04-21T02:32:54.845Z,17.55
2023-04-21T02:35:22.060Z,16.95
2023-04-21T02:37:50.911Z,19.17
2023-04-21T02:40:18.012Z,16.35
2023-04-21T02:42:45.526Z,14.25
2023-04-21T02:45:12.579Z,17.40
2023-04-21T02:47:39.620Z,22.58
2023-04-21T02:50:07.270Z,14.80
2023-04-21T02:52:40.074Z,18.42
2023-04-21T02:55:07.554Z,15.40
2023-04-21T02:57:34.485Z,13.38
2023-04-21T03:00:01.520Z,15.80
2023-04-21T03:02:28.657Z,16.35
2023-04-21T03:04:56.541Z,15.57
2023-04-21T03:07:23.761Z,17.45
2023-04-21T03:09:50.890Z,17.27
2023-04-21T03:12:17.863Z,20.45
2023-04-21T03:14:44.938Z,19.92
2023-04-21T03:17:11.911Z,16.75
2023-04-21T03:19:38.951Z,17.35
2023-04-21T03:22:06.545Z,14.73
2023-04-21T03:24:34.866Z,20.45
2023-04-21T03:27:02.682Z,16.52
2023-04-21T03:29:29.739Z,14.45
2023-04-21T03:31:56.822Z,17.63
2023-04-21T03:34:25.260Z,18.27
2023-04-21T03:36:52.310Z,16.48
2023-04-21T03:39:20.386Z,22.20
2023-04-21T03:41:49.327Z,16.85
2023-04-21T03:44:16.536Z,17.00
2023-04-21T03:46:43.666Z,14.95
2023-04-21T03:49:10.768Z,19.00
2023-04-21T03:51:37.735Z,15.98
2023-04-21T03:54:04.756Z,20.38
2023-04-21T03:56:31.788Z,17.70
2023-04-21T03:58:58.845Z,15.15
2023-04-21T04:01:25.910Z,17.13
2023-04-21T04:03:53.048Z,14.98
2023-04-21T04:06:20.235Z,16.42
2023-04-21T04:08:47.343Z,15.80
2023-04-21T04:11:14.279Z,16.17
2023-04-21T04:13:41.270Z,22.33
2023-04-21T04:16:08.481Z,20.05
2023-04-21T04:18:35.723Z,23.08
2023-04-21T04:21:10.112Z,15.23
2023-04-21T04:23:37.734Z,14.82
2023-04-21T04:26:05.758Z,16.15
2023-04-21T04:28:33.805Z,15.05
2023-04-21T04:31:01.069Z,17.20
2023-04-21T04:33:28.171Z,22.67
2023-04-21T04:35:55.364Z,19.90
2023-04-21T04:38:23.170Z,18.02
2023-04-21T04:40:57.911Z,16.25
2023-04-21T04:43:25.638Z,20.25
2023-04-21T04:45:52.675Z,17.75
2023-04-21T04:48:19.919Z,16.67
2023-04-21T04:50:46.967Z,18.85
2023-04-21T04:53:13.958Z,19.38
2023-04-21T04:55:40.968Z,18.13
2023-04-21T04:58:08.088Z,17.27
2023-04-21T05:00:35.127Z,18.92
2023-04-21T05:03:02.341Z,16.70
2023-04-21T05:05:29.523Z,17.50
2023-04-21T05:07:57.411Z,18.42
2023-04-21T05:10:24.509Z,24.23
2023-04-21T05:12:51.568Z,19.67
2023-04-21T05:15:18.792Z,16.00
2023-04-21T05:17:45.966Z,20.88
2023-04-21T05:20:13.033Z,19.42
2023-04-21T05:22:40.513Z,19.25
2023-04-21T05:25:08.184Z,18.15
2023-04-21T05:27:35.317Z,21.70
2023-04-21T05:30:02.490Z,25.92
2023-04-21T05:32:29.584Z,29.70
2023-04-21T05:34:56.780Z,23.02
2023-04-21T05:37:23.895Z,36.28
2023-04-21T05:39:52.122Z,48.30
2023-04-21T05:42:19.251Z,35.97
2023-04-21T05:44:46.209Z,118.90
2023-04-21T05:47:13.320Z,55.92
2023-04-21T05:49:40.424Z,37.20
2023-04-21T05:52:10.653Z,27.88
2023-04-21T05:54:38.006Z,32.92
2023-04-21T05:57:05.859Z,25.52
2023-04-21T05:59:32.926Z,27.65
2023-04-21T06:02:00.005Z,46.42
2023-04-21T06:04:27.508Z,28.40
2023-04-21T06:06:54.843Z,28.75
2023-04-21T06:09:21.984Z,25.15
2023-04-21T06:11:50.674Z,23.10
2023-04-21T06:14:18.793Z,25.40
2023-04-21T06:16:46.513Z,26.95
2023-04-21T06:19:13.735Z,26.88
2023-04-21T06:21:40.895Z,23.95
2023-04-21T06:24:08.249Z,26.48
2023-04-21T06:26:35.452Z,24.15
2023-04-21T06:29:02.582Z,27.23
2023-04-21T06:31:29.681Z,26.55
2023-04-21T06:33:56.852Z,26.13
2023-04-21T06:36:23.850Z,24.48
2023-04-21T06:38:50.910Z,26.05
2023-04-21T06:41:18.388Z,23.20
2023-04-21T06:43:45.478Z,23.70
2023-04-21T06:46:12.500Z,25.23
2023-04-21T06:48:39.538Z,25.20
2023-04-21T06:51:06.510Z,21.65
2023-04-21T06:53:33.586Z,22.48
2023-04-21T06:56:00.635Z,24.38
2023-04-21T06:58:27.761Z,30.05
2023-04-21T07:00:54.750Z,34.35
2023-04-21T07:03:21.955Z,26.02
2023-04-21T07:05:49.060Z,22.63
2023-04-21T07:08:16.405Z,23.35
2023-04-21T07:10:43.446Z,22.85
2023-04-21T07:13:10.716Z,26.88
2023-04-21T07:15:37.782Z,24.40
2023-04-21T07:18:04.856Z,30.92
2023-04-21T07:20:31.896Z,23.80
2023-04-21T07:22:59.012Z,23.58
2023-04-21T07:25:26.240Z,30.92
2023-04-21T07:27:53.319Z,26.85
2023-04-21T07:30:22.465Z,29.23
2023-04-21T07:32:50.378Z,29.80
2023-04-21T07:35:17.665Z,29.80
2023-04-21T07:37:45.230Z,25.33
2023-04-21T07:40:12.454Z,26.23
2023-04-21T07:42:39.833Z,28.20
2023-04-21T07:45:07.422Z,30.30
2023-04-21T07:47:34.959Z,25.48
2023-04-21T07:50:02.012Z,25.73
2023-04-21T07:52:29.086Z,24.15
2023-04-21T07:54:56.143Z,25.95
2023-04-21T07:57:23.323Z,37.45
2023-04-21T07:59:50.396Z,28.10
2023-04-21T08:02:18.083Z,25.95
2023-04-21T08:04:45.147Z,25.10
2023-04-21T08:07:13.822Z,34.15
2023-04-21T08:09:41.021Z,34.15
2023-04-21T08:12:08.019Z,29.77
2023-04-21T08:14:35.050Z,34.53
2023-04-21T08:17:02.193Z,24.77
2023-04-21T08:19:29.351Z,23.02
2023-04-21T08:21:57.118Z,35.22
2023-04-21T08:24:24.407Z,22.10
2023-04-21T08:26:51.594Z,29.05
2023-04-21T08:29:18.539Z,24.42
2023-04-21T08:31:45.577Z,22.42
2023-04-21T08:34:12.637Z,29.00
2023-04-21T08:36:39.742Z,22.73
2023-04-21T08:39:07.014Z,25.08
2023-04-21T08:41:34.403Z,28.17
2023-04-21T08:44:01.382Z,22.17
2023-04-21T08:46:28.817Z,27.30
2023-04-21T08:48:59.020Z,20.42
2023-04-21T08:51:28.635Z,26.02
2023-04-21T08:53:55.666Z,21.42
2023-04-21T08:56:25.114Z,24.35
2023-04-21T08:58:52.214Z,24.67
2023-04-21T09:01:19.491Z,20.98
2023-04-21T09:03:47.169Z,27.60
2023-04-21T09:06:14.574Z,23.23
2023-04-21T09:08:55.890Z,23.23
2023-04-21T09:11:23.284Z,24.08
2023-04-21T09:13:50.401Z,23.80
2023-04-21T09:16:21.245Z,22.95
2023-04-21T09:18:49.712Z,22.85
2023-04-21T09:21:18.316Z,21.35
2023-04-21T09:23:48.895Z,19.80
2023-04-21T09:26:17.713Z,18.00
2023-04-21T09:28:47.182Z,17.67
2023-04-21T09:31:20.122Z,17.75
2023-04-21T09:36:23.949Z,15.77
2023-04-21T09:41:33.086Z,17.15
2023-04-21T09:44:04.679Z,17.30
2023-04-21T09:46:36.932Z,17.05
2023-04-21T09:49:05.828Z,17.42
2023-04-21T09:51:56.280Z,17.70
2023-04-21T09:56:56.487Z,17.65
2023-04-21T09:59:28.312Z,18.45
2023-04-21T10:01:57.945Z,16.75
2023-04-21T10:04:27.695Z,15.50
2023-04-21T10:06:55.732Z,16.33
2023-04-21T10:09:25.482Z,20.75
2023-04-21T10:11:53.868Z,15.82
2023-04-21T10:14:21.372Z,12.85
2023-04-21T10:17:18.189Z,16.30
2023-04-21T10:19:51.177Z,15.32
2023-04-21T10:22:39.717Z,13.88
2023-04-21T10:25:10.108Z,15.77
2023-04-21T10:27:40.452Z,14.25
2023-04-21T10:30:26.716Z,13.38
2023-04-21T10:33:04.996Z,15.30
2023-04-21T10:36:03.297Z,9.77
2023-04-21T10:38:41.760Z,10.88
2023-04-21T10:41:29.266Z,11.10
2023-04-21T10:43:59.761Z,10.25
2023-04-21T10:46:36.568Z,10.63
2023-04-21T10:49:08.999Z,9.88
2023-04-21T10:51:57.673Z,11.32
2023-04-21T10:54:26.070Z,10.02
2023-04-21T10:56:54.394Z,10.73
2023-04-21T10:59:22.187Z,9.48
2023-04-21T11:01:49.175Z,11.27
2023-04-21T11:04:18.008Z,11.38
2023-04-21T11:07:08.755Z,9.48
2023-04-21T11:09:37.271Z,9.05
2023-04-21T11:12:07.459Z,11.20
2023-04-21T11:14:37.098Z,10.55
2023-04-21T11:17:05.577Z,9.48
2023-04-21T11:19:33.091Z,9.15
2023-04-21T11:22:00.546Z,8.93
2023-04-21T11:24:27.554Z,8.35
2023-04-21T11:26:54.567Z,9.05
2023-04-21T11:29:21.554Z,9.38
2023-04-21T11:31:50.245Z,8.93
2023-04-21T11:34:21.095Z,9.82
2023-04-21T11:36:49.224Z,10.15
2023-04-21T11:39:21.571Z,10.95
2023-04-21T11:41:50.859Z,10.20
2023-04-21T11:44:47.291Z,8.77
2023-04-21T11:47:19.385Z,7.63
2023-04-21T11:49:46.815Z,8.38
2023-04-21T11:52:29.660Z,7.45
2023-04-21T11:54:59.509Z,9.98
2023-04-21T11:57:28.733Z,7.93
2023-04-21T11:59:59.630Z,8.88
2023-04-21T12:02:28.891Z,9.50
2023-04-21T12:05:03.234Z,9.10
2023-04-21T12:07:52.372Z,9.45
2023-04-21T12:10:21.151Z,10.20
2023-04-21T12:12:48.781Z,11.95
2023-04-21T12:15:21.631Z,11.20
2023-04-21T12:17:51.220Z,12.35
2023-04-21T12:20:20.160Z,14.18
2023-04-21T12:22:47.819Z,11.45
2023-04-21T12:25:15.253Z,12.05
2023-04-21T12:28:09.216Z,15.63
2023-04-21T12:30:38.646Z,12.90
2023-04-21T12:33:08.692Z,13.73
2023-04-21T12:35:36.071Z,11.20
2023-04-21T12:38:03.068Z,11.98
2023-04-21T12:40:30.068Z,13.40
2023-04-21T12:42:57.110Z,12.55
2023-04-21T12:45:24.176Z,11.73
2023-04-21T12:47:51.393Z,12.07
2023-04-21T12:50:18.629Z,11.52
2023-04-21T12:52:45.826Z,10.77
2023-04-21T12:55:13.536Z,12.20
2023-04-21T12:57:40.635Z,11.00
2023-04-21T13:00:08.887Z,11.60
2023-04-21T13:02:37.872Z,11.60
2023-04-21T13:05:05.081Z,10.88
2023-04-21T13:07:34.300Z,10.90
2023-04-21T13:10:01.499Z,13.23
2023-04-21T13:12:28.749Z,11.32
2023-04-21T13:14:55.768Z,12.65
2023-04-21T13:17:23.261Z,11.77
2023-04-21T13:19:50.436Z,11.50
2023-04-21T13:22:17.427Z,11.85
2023-04-21T13:24:44.426Z,12.65
2023-04-21T13:27:11.486Z,12.48
2023-04-21T13:29:38.410Z,12.00
2023-04-21T13:32:07.632Z,12.05
2023-04-21T13:34:34.995Z,13.25
2023-04-21T13:37:02.592Z,11.52
2023-04-21T13:39:29.869Z,11.68
2023-04-21T13:41:57.257Z,12.40
2023-04-21T13:44:24.348Z,13.40
2023-04-21T13:46:53.005Z,12.57
2023-04-21T13:49:21.005Z,11.10
2023-04-21T13:51:48.241Z,10.23
2023-04-21T13:54:15.270Z,13.00
2023-04-21T13:56:42.377Z,10.18
2023-04-21T13:59:10.962Z,12.15
2023-04-21T14:01:38.145Z,11.50
2023-04-21T14:04:05.710Z,11.15
2023-04-21T14:06:33.161Z,11.50
2023-04-21T14:09:00.198Z,13.50
2023-04-21T14:11:27.287Z,10.07
2023-04-21T14:14:08.328Z,8.70
2023-04-21T14:16:36.531Z,11.02
2023-04-21T14:19:03.550Z,10.25
2023-04-21T14:21:31.815Z,13.05
2023-04-21T14:23:59.057Z,11.57
2023-04-21T14:26:27.522Z,10.02
2023-04-21T14:28:54.494Z,11.75
2023-04-21T14:31:22.386Z,11.90
2023-04-21T14:33:49.489Z,10.10
2023-04-21T14:36:16.596Z,9.23
2023-04-21T14:38:43.758Z,19.02
2023-04-21T14:41:10.779Z,16.80
2023-04-21T14:43:37.785Z,9.40
2023-04-21T14:46:05.206Z,9.25
2023-04-21T14:48:32.653Z,14.40
2023-04-21T14:50:59.842Z,6.80
2023-04-21T14:53:27.018Z,10.52
2023-04-21T14:55:54.797Z,10.15
2023-04-21T14:58:22.628Z,11.32
2023-04-21T15:00:49.792Z,5.57
2023-04-21T15:03:16.922Z,8.07
2023-04-21T15:05:44.228Z,6.25
2023-04-21T15:08:11.973Z,7.68
2023-04-21T15:10:39.085Z,14.20
2023-04-21T15:13:06.154Z,10.80
2023-04-21T15:15:33.221Z,6.07
2023-04-21T15:18:00.247Z,9.07
2023-04-21T15:20:43.009Z,9.80
2023-04-21T15:23:12.496Z,6.55
2023-04-21T15:25:40.355Z,9.38
2023-04-21T15:28:07.753Z,6.45
2023-04-21T15:30:34.793Z,4.88
2023-04-21T15:33:01.862Z,6.32
2023-04-21T15:35:28.918Z,5.50
2023-04-21T15:37:55.974Z,4.57
2023-04-21T15:40:23.279Z,10.40
2023-04-21T15:42:50.359Z,9.50
2023-04-21T15:45:18.307Z,6.90
2023-04-21T15:47:45.554Z,6.72
2023-04-21T15:50:12.713Z,6.82
2023-04-21T15:52:43.299Z,8.77
2023-04-21T15:55:13.622Z,11.10
2023-04-21T15:57:40.690Z,20.05
2023-04-21T16:00:10.718Z,20.90
2023-04-21T16:02:38.210Z,18.30
2023-04-21T16:05:05.849Z,11.40
2023-04-21T16:07:33.296Z,10.35
2023-04-21T16:10:00.440Z,9.85
2023-04-21T16:12:27.729Z,9.85
2023-04-21T16:14:59.526Z,10.82
2023-04-21T16:17:35.423Z,9.00
2023-04-21T16:20:05.396Z,12.43
2023-04-21T16:22:32.465Z,9.00
2023-04-21T16:25:00.765Z,9.18
2023-04-21T16:27:28.086Z,9.38
2023-04-21T16:29:55.126Z,9.88
2023-04-21T16:32:22.208Z,9.82
2023-04-21T16:34:49.341Z,9.20
2023-04-21T16:37:16.490Z,9.57
2023-04-21T16:39:43.477Z,9.27
2023-04-21T16:42:10.947Z,9.10
2023-04-21T16:44:38.058Z,11.20
2023-04-21T16:47:06.101Z,9.95
2023-04-21T16:49:33.286Z,12.80
2023-04-21T16:52:00.364Z,10.02
2023-04-21T16:54:27.332Z,9.20
2023-04-21T16:56:54.721Z,11.77
2023-04-21T16:59:23.778Z,9.25
2023-04-21T17:01:50.892Z,9.73
2023-04-21T17:04:17.999Z,8.88
2023-04-21T17:06:45.036Z,9.45
2023-04-21T17:09:11.994Z,8.60
2023-04-21T17:11:40.242Z,9.52
2023-04-21T17:14:07.360Z,11.65
2023-04-21T17:16:34.730Z,10.75
2023-04-21T17:19:02.595Z,11.07
2023-04-21T17:21:29.806Z,11.35
2023-04-21T17:23:56.759Z,9.93
2023-04-21T17:26:24.062Z,9.50
2023-04-21T17:28:51.555Z,8.88
2023-04-21T17:31:18.910Z,9.35
2023-04-21T17:33:45.910Z,10.68
2023-04-21T17:36:13.084Z,10.32
2023-04-21T17:38:41.878Z,10.73
2023-04-21T17:41:09.049Z,9.55
2023-04-21T17:43:36.055Z,10.23
2023-04-21T17:46:03.168Z,9.63
2023-04-21T17:48:30.282Z,12.20
2023-04-21T17:50:57.301Z,10.60
2023-04-21T17:53:24.371Z,10.13
2023-04-21T17:55:51.594Z,9.80
2023-04-21T17:58:18.673Z,9.32
2023-04-21T18:00:45.909Z,9.07
2023-04-21T18:03:13.071Z,9.65
2023-04-21T18:05:40.646Z,10.43
2023-04-21T18:08:08.002Z,9.70
2023-04-21T18:10:36.213Z,11.00
2023-04-21T18:13:03.587Z,11.95
2023-04-21T18:15:30.740Z,9.40
2023-04-21T18:17:58.069Z,9.38
2023-04-21T18:20:25.337Z,10.43
2023-04-21T18:22:54.236Z,10.95
2023-04-21T18:25:38.406Z,10.80
2023-04-21T18:28:08.800Z,10.10
2023-04-21T18:30:35.836Z,9.55
2023-04-21T18:33:02.995Z,11.20
2023-04-21T18:35:31.974Z,10.73
2023-04-21T18:37:59.200Z,9.13
2023-04-21T18:40:26.206Z,8.30
2023-04-21T18:42:53.286Z,9.18
2023-04-21T18:45:20.427Z,11.02
2023-04-21T18:47:47.594Z,10.82
2023-04-21T18:50:14.623Z,10.85
2023-04-21T18:52:41.640Z,9.77
2023-04-21T18:55:09.298Z,9.93
2023-04-21T18:57:36.452Z,9.30
2023-04-21T19:00:03.800Z,9.23
2023-04-21T19:02:31.130Z,11.57
2023-04-21T19:04:58.420Z,8.98
2023-04-21T19:07:26.999Z,10.07
2023-04-21T19:09:54.008Z,8.75
2023-04-21T19:12:21.513Z,11.20
2023-04-21T19:14:49.670Z,10.20
2023-04-21T19:17:16.848Z,12.10
2023-04-21T19:19:43.925Z,13.95
2023-04-21T19:22:11.063Z,10.98
2023-04-21T19:24:38.303Z,11.43
2023-04-21T19:27:06.499Z,12.77
2023-04-21T19:29:33.710Z,13.80
2023-04-21T19:32:00.814Z,11.05
2023-04-21T19:34:27.882Z,13.27
2023-04-21T19:36:54.942Z,12.95
2023-04-21T19:39:21.934Z,11.60
2023-04-21T19:41:48.942Z,11.15
2023-04-21T19:44:16.608Z,10.55
2023-04-21T19:46:43.881Z,12.82
2023-04-21T19:49:14.204Z,11.38
2023-04-21T19:51:41.495Z,10.50
2023-04-21T19:54:12.108Z,13.75
2023-04-21T19:56:40.099Z,19.48
2023-04-21T19:59:07.306Z,21.73
2023-04-21T20:01:34.659Z,17.90
2023-04-21T20:04:02.436Z,18.00
2023-04-21T20:06:29.697Z,16.20
2023-04-21T20:08:58.129Z,17.27
2023-04-21T20:11:28.782Z,15.27
2023-04-21T20:13:56.237Z,14.68
2023-04-21T20:16:24.019Z,12.73
2023-04-21T20:18:51.653Z,13.52
2023-04-21T20:21:18.913Z,12.88
2023-04-21T20:23:45.975Z,12.55
2023-04-21T20:26:13.296Z,13.15
2023-04-21T20:28:40.338Z,12.27
2023-04-21T20:31:07.382Z,13.50
2023-04-21T20:33:34.567Z,11.70
2023-04-21T20:36:07.328Z,12.43
2023-04-21T20:38:34.951Z,13.43
2023-04-21T20:41:03.399Z,13.02
2023-04-21T20:43:33.331Z,13.90
2023-04-21T20:46:01.705Z,14.10
2023-04-21T20:48:28.926Z,13.88
2023-04-21T20:50:56.153Z,13.95
2023-04-21T20:53:23.616Z,14.57
2023-04-21T20:55:50.894Z,11.65
2023-04-21T20:58:18.125Z,11.43
2023-04-21T21:00:45.377Z,12.35
2023-04-21T21:03:13.740Z,12.63
2023-04-21T21:05:41.503Z,12.75
2023-04-21T21:08:09.185Z,13.45
2023-04-21T21:10:36.443Z,12.95
2023-04-21T21:13:03.790Z,13.35
2023-04-21T21:15:31.090Z,13.02
2023-04-21T21:17:58.379Z,13.63
2023-04-21T21:20:25.829Z,12.80
2023-04-21T21:22:52.784Z,13.70
2023-04-21T21:25:19.923Z,13.80
2023-04-21T21:27:47.044Z,13.20
2023-04-21T21:30:14.309Z,13.50
2023-04-21T21:32:41.272Z,12.50
2023-04-21T21:35:09.617Z,13.48
2023-04-21T21:37:37.452Z,12.90
2023-04-21T21:40:08.550Z,14.35
2023-04-21T21:42:35.655Z,14.65
2023-04-21T21:45:02.607Z,12.70
2023-04-21T21:47:29.718Z,14.77
2023-04-21T21:49:58.847Z,17.10
2023-04-21T21:52:28.476Z,20.23
2023-04-21T21:54:55.836Z,22.65
2023-04-21T21:57:22.970Z,22.48
2023-04-21T21:59:50.172Z,14.10
2023-04-21T22:02:17.247Z,20.20
2023-04-21T22:04:44.483Z,19.70
2023-04-21T22:07:11.469Z,17.48
2023-04-21T22:09:40.011Z,18.63
2023-04-21T22:12:07.625Z,16.63
2023-04-21T22:14:34.878Z,15.60
2023-04-21T22:17:02.969Z,15.57
2023-04-21T22:19:31.096Z,14.75
2023-04-21T22:21:58.137Z,13.65
2023-04-21T22:24:25.298Z,15.55
2023-04-21T22:26:52.352Z,14.13
2023-04-21T22:29:19.457Z,13.68
2023-04-21T22:31:46.932Z,14.25
2023-04-21T22:34:16.742Z,10.77
2023-04-21T22:36:43.832Z,13.95
2023-04-21T22:39:11.019Z,15.25
2023-04-21T22:41:38.605Z,15.30
2023-04-21T22:44:05.665Z,15.23
2023-04-21T22:46:33.722Z,13.02
2023-04-21T22:49:05.254Z,13.82
2023-04-21T22:51:32.704Z,13.52
2023-04-21T22:54:00.493Z,15.05
2023-04-21T22:56:29.402Z,14.68
2023-04-21T22:58:56.441Z,14.85
2023-04-21T23:01:23.617Z,13.45
2023-04-21T23:03:50.782Z,14.90
2023-04-21T23:06:17.794Z,14.75
2023-04-21T23:08:44.875Z,14.77
2023-04-21T23:11:12.011Z,14.10
2023-04-21T23:13:39.960Z,13.25
2023-04-21T23:16:07.169Z,15.63
2023-04-21T23:18:34.232Z,13.63
2023-04-21T23:21:01.311Z,14.32
2023-04-21T23:23:28.523Z,15.45
2023-04-21T23:25:55.642Z,15.75
2023-04-21T23:28:23.893Z,15.23
2023-04-21T23:30:51.214Z,16.88
2023-04-21T23:33:18.393Z,17.38
2023-04-21T23:35:45.626Z,18.23
2023-04-21T23:38:12.882Z,19.25
2023-04-21T23:40:40.183Z,17.30
2023-04-21T23:43:07.494Z,16.27
2023-04-21T23:45:34.584Z,10.50
2023-04-21T23:48:01.613Z,17.23
2023-04-21T23:50:28.929Z,15.88
2023-04-21T23:52:56.125Z,16.65
2023-04-21T23:55:23.152Z,11.90
2023-04-21T23:57:50.094Z,16.00
